ENOV

Ørsta-Volda , Hovden Airport

Ørsta, Norway
METAR ENOV 201450Z VRB01KT CAVOK M05/M09 Q1000 RMK WIND 2175FT 14015KT
Observed Flight Rules
Jan-20 @ 14:50 UTC (14 hours ago) Visual Flight Rules
Wind Visibility Clouds
Variable at 1 knots 10,000+ meters
  • Clear skies
Temperatures Readings
Current -5°C / 23°F
Dewpoint -9°C / 16°F
Humidity 74%
Altimeter 29.53" Hg
Pressure 1000 hPa
Elevation 74
METAR ENOV 201450Z VRB01KT CAVOK M05/M09 Q1000 RMK WIND 2175FT 14015KT
Observed Flight Rules
Jan-20 @ 14:50 UTC
(14 hours ago)
VFR
Wind Visibility
Variable at 1 knots 10,000+ meters
Clouds
  • Clear skies
Temperature Dewpoint
-5°C / 23°F -9°C / 16°F
Humidity Altimeter Pressure
74% 29.53" Hg 1000 hPa